• Join FlightAware (Why Join?)
  • Login
  • US Flag 
02:38PM EDT


 

Airport Tracker/Info


-or-


 

Live Flight TrackerFlight Track Log ✈ PDT4201 ✈ 28-May-2013 ✈ KEWN - KCLT

Flight Track Log - Related Links

Times and Time Zones

All times are in EDT time to prevent confusion due to time zone crossing. See the PDT4201 flight status page for this flight to view local times or setup timezone preferences in your user account.

Time Position Orientation Groundspeed Altitude Reporting Facility
EDT Latitude Longitude Course Direction KTS MPH feet Rate Location/Type
05:26AM 35.0400 -77.1597 279° West 151 174 3,600  Level Washington Center
05:27AM 34.9395 -77.1840 226° Southwest  Level FlightAware Approximate
05:27AM 35.0350 -77.2156 264° West 162 186 4,600  Level Washington Center
05:28AM 34.8982 -77.2355 225° Southwest  Level FlightAware Approximate
05:28AM 35.0114 -77.2658 240° Southwest 162 186 5,500  Level Washington Center
05:29AM 34.8561 -77.2861 225° Southwest  Level FlightAware Approximate
05:29AM 34.9961 -77.3186 251° West 172 198 6,200  Level Washington Center
05:30AM 34.8128 -77.3333 180° South  Level FlightAware Approximate
05:30AM 34.9806 -77.3767 252° West 172 198 7,000  Level Washington Center
05:31AM 34.8223 -77.4086 279° West  Level Estimated
05:31AM 34.9650 -77.4347 252° West 178 205 7,700  Level Washington Center
05:32AM 34.8317 -77.4839 279° West  Level Estimated
05:32AM 34.9494 -77.4950 253° West 183 211 8,500  Level Washington Center
05:33AM 34.9339 -77.5581 253° West 190 219 9,300 780 Climbing Washington Center
05:34AM 34.9183 -77.6158 252° West 185 213 10,100 780 Climbing Washington Center
05:35AM 34.8944 -77.6711 242° Southwest 185 213 10,900 720 Climbing Washington Center
05:36AM 34.8767 -77.7289 249° West 185 213 11,600 780 Climbing Washington Center
05:37AM 34.8589 -77.7892 250° West 190 219 12,500 720 Climbing Washington Center
05:38AM 34.8411 -77.8467 249° West 190 219 13,100 600 Climbing Washington Center
05:39AM 34.8233 -77.9044 249° West 190 219 13,800 660 Climbing Washington Center
05:40AM 34.8033 -77.9697 250° West 190 219 14,500 600 Climbing Washington Center
05:41AM 34.7856 -78.0297 250° West 190 219 15,100 600 Climbing Washington Center
05:42AM 34.7675 -78.0900 250° West 190 219 15,800 420 Climbing Washington Center
05:43AM 34.7433 -78.1525 245° Southwest 195 224 16,000 60 Climbing Washington Center
05:44AM 34.7167 -78.2197 244° Southwest 203 234 16,000  Level Washington Center
05:45AM 34.6942 -78.2922 249° West 216 249 16,000  Level Washington Center
05:46AM 34.6717 -78.3672 250° West 232 267 16,000  Level Washington Center
05:47AM 34.6492 -78.4322 247° West 226 260 16,000  Level Washington Center
05:48AM 34.6289 -78.4972 249° West 231 266 16,000  Level Washington Center
05:49AM 34.6086 -78.5489 245° Southwest 231 266 16,000  Level Jacksonville Center
05:50AM 34.5842 -78.6258 249° West 236 272 16,000  Level Jacksonville Center
05:51AM 34.5594 -78.6975 247° West 236 272 16,000  Level Jacksonville Center
05:52AM 34.5367 -78.7667 248° West 236 272 16,000  Level Jacksonville Center
05:53AM 34.5161 -78.8408 251° West 236 272 16,000  Level Jacksonville Center
05:54AM 34.4897 -78.9250 249° West 236 272 16,000  Level Jacksonville Center
05:55AM 34.4647 -78.9967 247° West 236 272 16,000  Level Jacksonville Center
05:56AM 34.4375 -79.0658 245° Southwest 236 272 16,000  Level Jacksonville Center
05:57AM 34.4086 -79.1378 244° Southwest 236 272 16,000 -60 Level Jacksonville Center
05:58AM 34.3836 -79.2117 248° West 241 277 15,900 -480 Descending Jacksonville Center
05:59AM 34.3567 -79.2883 247° West 241 277 15,100 -900 Descending Jacksonville Center
06:00AM 34.3297 -79.3700 248° West 251 289 14,200 -840 Descending Jacksonville Center
06:01AM 34.3047 -79.4439 248° West 257 296 13,500 -840 Descending Jacksonville Center
06:02AM 34.2819 -79.5300 252° West 268 308 12,600 -900 Descending Jacksonville Center
06:03AM 34.2944 -79.6125 280° West 259 298 11,700 -900 Descending Jacksonville Center
06:04AM 34.3403 -79.6839 308° West 246 283 10,900 -780 Descending Jacksonville Center
06:05AM 34.3836 -79.7550 306° West 255 293 10,200 -480 Descending Jacksonville Center
06:06AM 34.4250 -79.8267 305° West 266 306 10,000 -120 Descending Jacksonville Center
06:07AM 34.4539 -79.9011 295° West 256 295 10,000  Level Jacksonville Center
06:08AM 34.4867 -79.9656 302° West 245 282 10,000  Level Jacksonville Center
06:09AM 34.5217 -80.0375 301° West 245 282 10,000  Level Jacksonville Center
06:10AM 34.5567 -80.1017 304° West 240 276 10,000  Level Jacksonville Center
06:12AM 34.6219 -80.2272 302° West 238 274 10,000  Level Atlanta Center
06:13AM 34.6575 -80.2939 303° West 239 275 10,000  Level Atlanta Center
06:14AM 34.7050 -80.3447 319° Northwest 246 283 10,000  Level Atlanta Center
06:15AM 34.7547 -80.4083 314° West 242 278 10,000 -420 Level Atlanta Center
06:16AM 34.8114 -80.4819 313° West 255 293 9,200 -480 Descending Atlanta Center
06:17AM 34.8650 -80.5378 319° Northwest 262 302 9,000 -120 Descending Atlanta Center
06:18AM 34.9211 -80.6064 315° West 245 282 9,000  Level Atlanta Center
06:19AM 34.9667 -80.6653 313° West 240 276 9,000  Level Atlanta Center
06:20AM 35.0122 -80.7269 312° West 239 275 9,000  Level Atlanta Center
06:21AM 35.0556 -80.7833 313° West 239 275 9,000  Level Atlanta Center
06:22AM 35.0867 -80.8558 298° West 234 269 9,000  Level Atlanta Center
06:23AM 35.1133 -80.9208 297° West 233 268 9,000  Level Atlanta Center
06:24AM 35.1503 -80.9881 304° West 236 272 9,000 -300 Level Atlanta Center
06:25AM 35.1936 -81.0525 309° West 248 285 8,500 -1,140 Descending Atlanta Center
06:26AM 35.2694 -81.0778 345° North 252 290 6,600 -1,680 Descending Atlanta Center
06:27AM 35.3300 -81.0781 360° North 242 278 5,100 -1,200 Descending Atlanta Center
06:28AM 35.3617 -81.0108 60° Northeast 203 234 4,100 -840 Descending Atlanta Center